sensor_id;sensor_type;location;lat;lon;timestamp;pressure;altitude;pressure_sealevel;temperature;humidity
31299;BME280;17927;52.350;13.402;2023-05-29T00:02:22;101594.44;;;20.19;35.86
31299;BME280;17927;52.350;13.402;2023-05-29T00:04:48;101595.84;;;20.15;35.82
31299;BME280;17927;52.350;13.402;2023-05-29T00:07:13;101590.91;;;20.10;35.79
31299;BME280;17927;52.350;13.402;2023-05-29T00:09:38;101599.53;;;20.07;36.31
31299;BME280;17927;52.350;13.402;2023-05-29T00:12:03;101593.53;;;20.03;35.80
31299;BME280;17927;52.350;13.402;2023-05-29T00:14:30;101587.59;;;20.00;36.04
31299;BME280;17927;52.350;13.402;2023-05-29T00:16:56;101587.13;;;19.96;36.28
31299;BME280;17927;52.350;13.402;2023-05-29T00:19:21;101590.22;;;19.93;36.37
31299;BME280;17927;52.350;13.402;2023-05-29T00:21:47;101589.06;;;19.87;36.33
31299;BME280;17927;52.350;13.402;2023-05-29T00:24:14;101585.81;;;19.84;36.46
31299;BME280;17927;52.350;13.402;2023-05-29T00:26:39;101587.22;;;19.80;36.48
31299;BME280;17927;52.350;13.402;2023-05-29T00:29:05;101585.03;;;19.75;36.51
31299;BME280;17927;52.350;13.402;2023-05-29T00:31:30;101595.50;;;19.71;36.58
31299;BME280;17927;52.350;13.402;2023-05-29T00:33:56;101587.00;;;19.66;36.63
31299;BME280;17927;52.350;13.402;2023-05-29T00:36:21;101583.94;;;19.61;36.86
31299;BME280;17927;52.350;13.402;2023-05-29T00:38:46;101593.56;;;19.57;36.88
31299;BME280;17927;52.350;13.402;2023-05-29T00:41:15;101593.06;;;19.53;37.30
31299;BME280;17927;52.350;13.402;2023-05-29T00:43:41;101586.06;;;19.51;37.07
31299;BME280;17927;52.350;13.402;2023-05-29T00:46:06;101589.19;;;19.47;37.34
31299;BME280;17927;52.350;13.402;2023-05-29T00:48:32;101592.47;;;19.43;37.23
31299;BME280;17927;52.350;13.402;2023-05-29T00:50:57;101591.31;;;19.37;37.10
31299;BME280;17927;52.350;13.402;2023-05-29T00:53:24;101592.69;;;19.33;37.66
31299;BME280;17927;52.350;13.402;2023-05-29T00:55:49;101593.25;;;19.28;37.52
31299;BME280;17927;52.350;13.402;2023-05-29T00:58:15;101590.00;;;19.25;37.58
31299;BME280;17927;52.350;13.402;2023-05-29T01:00:41;101587.63;;;19.22;37.61
31299;BME280;17927;52.350;13.402;2023-05-29T01:03:08;101587.13;;;19.18;37.51
31299;BME280;17927;52.350;13.402;2023-05-29T01:05:34;101587.66;;;19.13;37.50
31299;BME280;17927;52.350;13.402;2023-05-29T01:08:01;101590.06;;;19.08;37.90
31299;BME280;17927;52.350;13.402;2023-05-29T01:10:27;101590.47;;;19.05;37.75
31299;BME280;17927;52.350;13.402;2023-05-29T01:15:41;101592.38;;;18.96;38.01
31299;BME280;17927;52.350;13.402;2023-05-29T01:18:34;101602.78;;;18.93;38.10
31299;BME280;17927;52.350;13.402;2023-05-29T01:23:51;101599.97;;;18.69;37.94
31299;BME280;17927;52.350;13.402;2023-05-29T01:29:03;101593.50;;;18.62;37.82
31299;BME280;17927;52.350;13.402;2023-05-29T01:31:32;101601.38;;;18.65;37.52
31299;BME280;17927;52.350;13.402;2023-05-29T01:33:59;101604.59;;;18.69;37.68
31299;BME280;17927;52.350;13.402;2023-05-29T01:36:26;101607.34;;;18.69;37.75
31299;BME280;17927;52.350;13.402;2023-05-29T01:38:53;101611.28;;;18.66;37.92
31299;BME280;17927;52.350;13.402;2023-05-29T01:41:19;101607.69;;;18.66;38.00
31299;BME280;17927;52.350;13.402;2023-05-29T01:43:47;101610.59;;;18.64;38.10
31299;BME280;17927;52.350;13.402;2023-05-29T01:46:13;101616.22;;;18.63;38.22
31299;BME280;17927;52.350;13.402;2023-05-29T01:48:41;101614.72;;;18.60;38.14
31299;BME280;17927;52.350;13.402;2023-05-29T01:51:06;101613.19;;;18.58;38.13
31299;BME280;17927;52.350;13.402;2023-05-29T01:53:32;101612.84;;;18.52;38.40
31299;BME280;17927;52.350;13.402;2023-05-29T01:55:57;101627.75;;;18.50;38.36
31299;BME280;17927;52.350;13.402;2023-05-29T01:58:22;101616.28;;;18.46;38.29
31299;BME280;17927;52.350;13.402;2023-05-29T02:00:48;101622.97;;;18.44;38.43
31299;BME280;17927;52.350;13.402;2023-05-29T02:03:13;101619.72;;;18.40;38.46
31299;BME280;17927;52.350;13.402;2023-05-29T02:05:38;101612.69;;;18.37;38.35
31299;BME280;17927;52.350;13.402;2023-05-29T02:08:04;101621.09;;;18.36;38.40
31299;BME280;17927;52.350;13.402;2023-05-29T02:10:29;101611.53;;;18.32;38.35
31299;BME280;17927;52.350;13.402;2023-05-29T02:12:56;101606.41;;;18.29;38.50
31299;BME280;17927;52.350;13.402;2023-05-29T02:15:22;101608.47;;;18.26;38.59
31299;BME280;17927;52.350;13.402;2023-05-29T02:17:47;101614.44;;;18.22;38.54
31299;BME280;17927;52.350;13.402;2023-05-29T02:20:12;101607.78;;;18.16;38.59
31299;BME280;17927;52.350;13.402;2023-05-29T02:22:38;101612.56;;;18.14;38.61
31299;BME280;17927;52.350;13.402;2023-05-29T02:25:03;101615.66;;;18.11;38.75
31299;BME280;17927;52.350;13.402;2023-05-29T02:27:29;101615.13;;;18.07;38.78
31299;BME280;17927;52.350;13.402;2023-05-29T02:29:54;101612.78;;;18.04;38.77
31299;BME280;17927;52.350;13.402;2023-05-29T02:32:19;101614.97;;;18.01;38.80
31299;BME280;17927;52.350;13.402;2023-05-29T02:34:44;101609.88;;;17.98;38.86
31299;BME280;17927;52.350;13.402;2023-05-29T02:37:10;101617.50;;;17.94;39.06
31299;BME280;17927;52.350;13.402;2023-05-29T02:39:35;101613.25;;;17.91;38.97
31299;BME280;17927;52.350;13.402;2023-05-29T02:42:00;101609.81;;;17.89;38.87
31299;BME280;17927;52.350;13.402;2023-05-29T02:44:26;101617.34;;;17.87;38.83
31299;BME280;17927;52.350;13.402;2023-05-29T02:46:51;101616.66;;;17.85;38.85
31299;BME280;17927;52.350;13.402;2023-05-29T02:49:16;101617.84;;;17.83;38.75
31299;BME280;17927;52.350;13.402;2023-05-29T02:51:41;101622.47;;;17.82;38.74
31299;BME280;17927;52.350;13.402;2023-05-29T02:54:07;101620.91;;;17.79;38.95
31299;BME280;17927;52.350;13.402;2023-05-29T02:56:32;101618.38;;;17.78;38.78
31299;BME280;17927;52.350;13.402;2023-05-29T02:58:57;101622.28;;;17.75;38.90
31299;BME280;17927;52.350;13.402;2023-05-29T03:01:23;101622.47;;;17.74;38.89
31299;BME280;17927;52.350;13.402;2023-05-29T03:03:48;101617.16;;;17.72;38.87
31299;BME280;17927;52.350;13.402;2023-05-29T03:06:13;101617.31;;;17.71;38.77
31299;BME280;17927;52.350;13.402;2023-05-29T03:08:38;101620.91;;;17.71;38.81
31299;BME280;17927;52.350;13.402;2023-05-29T03:11:07;101627.22;;;17.72;39.14
31299;BME280;17927;52.350;13.402;2023-05-29T03:13:34;101627.41;;;17.70;38.97
31299;BME280;17927;52.350;13.402;2023-05-29T03:15:59;101628.25;;;17.71;39.01
31299;BME280;17927;52.350;13.402;2023-05-29T03:18:24;101633.03;;;17.69;39.03
31299;BME280;17927;52.350;13.402;2023-05-29T03:20:50;101628.59;;;17.68;39.11
31299;BME280;17927;52.350;13.402;2023-05-29T03:23:15;101631.50;;;17.66;39.13
31299;BME280;17927;52.350;13.402;2023-05-29T03:25:40;101632.53;;;17.65;39.22
31299;BME280;17927;52.350;13.402;2023-05-29T03:28:05;101630.81;;;17.64;39.09
31299;BME280;17927;52.350;13.402;2023-05-29T03:30:31;101637.28;;;17.63;39.08
31299;BME280;17927;52.350;13.402;2023-05-29T03:32:56;101635.56;;;17.62;39.37
31299;BME280;17927;52.350;13.402;2023-05-29T03:35:21;101636.44;;;17.62;39.45
31299;BME280;17927;52.350;13.402;2023-05-29T03:37:47;101633.72;;;17.62;39.44
31299;BME280;17927;52.350;13.402;2023-05-29T03:40:12;101637.13;;;17.64;39.54
31299;BME280;17927;52.350;13.402;2023-05-29T03:42:37;101639.00;;;17.64;39.56
31299;BME280;17927;52.350;13.402;2023-05-29T03:45:03;101638.84;;;17.65;39.67
31299;BME280;17927;52.350;13.402;2023-05-29T03:47:28;101642.59;;;17.64;39.81
31299;BME280;17927;52.350;13.402;2023-05-29T03:49:53;101635.25;;;17.65;39.91
31299;BME280;17927;52.350;13.402;2023-05-29T03:52:19;101639.88;;;17.64;39.89
31299;BME280;17927;52.350;13.402;2023-05-29T03:54:44;101638.50;;;17.69;39.97
31299;BME280;17927;52.350;13.402;2023-05-29T03:57:10;101645.50;;;17.71;40.11
31299;BME280;17927;52.350;13.402;2023-05-29T03:59:35;101648.75;;;17.75;39.94
31299;BME280;17927;52.350;13.402;2023-05-29T04:02:00;101658.34;;;17.79;40.32
31299;BME280;17927;52.350;13.402;2023-05-29T04:04:25;101655.28;;;17.82;40.14
31299;BME280;17927;52.350;13.402;2023-05-29T04:06:52;101662.94;;;17.87;40.19
31299;BME280;17927;52.350;13.402;2023-05-29T04:09:17;101662.44;;;17.91;40.59
31299;BME280;17927;52.350;13.402;2023-05-29T04:11:42;101661.81;;;17.98;40.29
31299;BME280;17927;52.350;13.402;2023-05-29T04:14:09;101664.72;;;18.04;40.15
31299;BME280;17927;52.350;13.402;2023-05-29T04:16:34;101668.63;;;18.10;40.32
31299;BME280;17927;52.350;13.402;2023-05-29T04:19:00;101672.56;;;18.16;40.23
31299;BME280;17927;52.350;13.402;2023-05-29T04:21:25;101662.81;;;18.21;40.30
31299;BME280;17927;52.350;13.402;2023-05-29T04:23:51;101672.22;;;18.27;40.50
31299;BME280;17927;52.350;13.402;2023-05-29T04:26:16;101671.53;;;18.33;40.54
31299;BME280;17927;52.350;13.402;2023-05-29T04:28:42;101669.81;;;18.40;40.23
31299;BME280;17927;52.350;13.402;2023-05-29T04:31:08;101665.53;;;18.46;40.45
31299;BME280;17927;52.350;13.402;2023-05-29T04:33:39;101675.09;;;18.50;40.36
31299;BME280;17927;52.350;13.402;2023-05-29T04:36:05;101673.19;;;18.59;40.62
31299;BME280;17927;52.350;13.402;2023-05-29T04:38:30;101675.06;;;18.67;40.42
31299;BME280;17927;52.350;13.402;2023-05-29T04:40:56;101681.19;;;18.77;40.69
31299;BME280;17927;52.350;13.402;2023-05-29T04:43:24;101678.25;;;18.87;40.48
31299;BME280;17927;52.350;13.402;2023-05-29T04:45:52;101672.81;;;18.95;40.37
31299;BME280;17927;52.350;13.402;2023-05-29T04:48:17;101674.47;;;19.05;40.54
31299;BME280;17927;52.350;13.402;2023-05-29T04:50:42;101675.28;;;19.13;40.54
31299;BME280;17927;52.350;13.402;2023-05-29T04:53:09;101679.53;;;19.24;40.35
31299;BME280;17927;52.350;13.402;2023-05-29T04:55:35;101677.63;;;19.33;40.20
31299;BME280;17927;52.350;13.402;2023-05-29T04:58:00;101673.63;;;19.44;39.90
31299;BME280;17927;52.350;13.402;2023-05-29T05:00:26;101676.16;;;19.54;39.75
31299;BME280;17927;52.350;13.402;2023-05-29T05:02:51;101685.34;;;19.61;39.49
31299;BME280;17927;52.350;13.402;2023-05-29T05:05:17;101679.63;;;19.71;39.41
31299;BME280;17927;52.350;13.402;2023-05-29T05:07:42;101673.22;;;19.78;39.55
31299;BME280;17927;52.350;13.402;2023-05-29T05:10:08;101676.09;;;19.85;39.36
31299;BME280;17927;52.350;13.402;2023-05-29T05:12:33;101670.56;;;19.93;38.93
31299;BME280;17927;52.350;13.402;2023-05-29T05:14:59;101677.88;;;20.01;38.97
31299;BME280;17927;52.350;13.402;2023-05-29T05:17:24;101672.53;;;20.08;39.02
31299;BME280;17927;52.350;13.402;2023-05-29T05:19:49;101673.84;;;20.12;38.72
31299;BME280;17927;52.350;13.402;2023-05-29T05:22:15;101677.38;;;20.21;38.94
31299;BME280;17927;52.350;13.402;2023-05-29T05:24:42;101686.41;;;20.30;38.69
31299;BME280;17927;52.350;13.402;2023-05-29T05:27:07;101687.53;;;20.35;38.99
31299;BME280;17927;52.350;13.402;2023-05-29T05:29:32;101689.56;;;20.42;38.59
31299;BME280;17927;52.350;13.402;2023-05-29T05:31:57;101682.09;;;20.50;38.48
31299;BME280;17927;52.350;13.402;2023-05-29T05:34:23;101685.63;;;20.59;38.60
31299;BME280;17927;52.350;13.402;2023-05-29T05:36:48;101682.78;;;20.67;38.42
31299;BME280;17927;52.350;13.402;2023-05-29T05:39:14;101680.34;;;20.73;38.19
31299;BME280;17927;52.350;13.402;2023-05-29T05:41:39;101682.53;;;20.77;38.29
31299;BME280;17927;52.350;13.402;2023-05-29T05:44:05;101681.28;;;20.80;37.94
31299;BME280;17927;52.350;13.402;2023-05-29T05:46:30;101686.63;;;20.81;38.12
31299;BME280;17927;52.350;13.402;2023-05-29T05:48:56;101698.94;;;20.86;38.19
31299;BME280;17927;52.350;13.402;2023-05-29T05:51:26;101690.78;;;20.92;37.95
31299;BME280;17927;52.350;13.402;2023-05-29T05:53:51;101696.53;;;20.97;38.00
31299;BME280;17927;52.350;13.402;2023-05-29T05:56:16;101697.50;;;21.05;37.63
31299;BME280;17927;52.350;13.402;2023-05-29T05:58:42;101701.00;;;21.13;37.57
31299;BME280;17927;52.350;13.402;2023-05-29T06:01:07;101703.66;;;21.22;37.56
31299;BME280;17927;52.350;13.402;2023-05-29T06:03:33;101709.06;;;21.30;37.76
31299;BME280;17927;52.350;13.402;2023-05-29T06:05:59;101715.28;;;21.39;37.58
31299;BME280;17927;52.350;13.402;2023-05-29T06:08:24;101712.44;;;21.47;37.30
31299;BME280;17927;52.350;13.402;2023-05-29T06:10:50;101707.22;;;21.52;36.82
31299;BME280;17927;52.350;13.402;2023-05-29T06:13:15;101709.16;;;21.58;37.17
31299;BME280;17927;52.350;13.402;2023-05-29T06:15:42;101708.22;;;21.66;37.20
31299;BME280;17927;52.350;13.402;2023-05-29T06:18:07;101707.47;;;21.72;37.15
31299;BME280;17927;52.350;13.402;2023-05-29T06:20:33;101711.34;;;21.78;36.48
31299;BME280;17927;52.350;13.402;2023-05-29T06:22:58;101713.13;;;21.86;37.02
31299;BME280;17927;52.350;13.402;2023-05-29T06:25:23;101718.69;;;21.93;36.32
31299;BME280;17927;52.350;13.402;2023-05-29T06:27:57;101724.47;;;21.98;36.57
31299;BME280;17927;52.350;13.402;2023-05-29T06:30:22;101715.41;;;22.04;36.28
31299;BME280;17927;52.350;13.402;2023-05-29T06:32:47;101727.34;;;22.11;36.19
31299;BME280;17927;52.350;13.402;2023-05-29T06:35:13;101724.44;;;22.19;35.97
31299;BME280;17927;52.350;13.402;2023-05-29T06:37:38;101729.81;;;22.28;36.10
31299;BME280;17927;52.350;13.402;2023-05-29T06:40:03;101717.84;;;22.35;35.53
31299;BME280;17927;52.350;13.402;2023-05-29T06:42:30;101723.03;;;22.45;35.79
31299;BME280;17927;52.350;13.402;2023-05-29T06:44:55;101721.81;;;22.55;35.35
31299;BME280;17927;52.350;13.402;2023-05-29T06:47:20;101727.38;;;22.61;34.62
31299;BME280;17927;52.350;13.402;2023-05-29T06:49:45;101726.38;;;22.69;34.40
31299;BME280;17927;52.350;13.402;2023-05-29T06:52:11;101727.03;;;22.71;34.35
31299;BME280;17927;52.350;13.402;2023-05-29T06:54:36;101731.09;;;22.75;34.13
31299;BME280;17927;52.350;13.402;2023-05-29T06:57:01;101730.28;;;22.81;34.00
31299;BME280;17927;52.350;13.402;2023-05-29T06:59:26;101735.00;;;22.88;33.85
31299;BME280;17927;52.350;13.402;2023-05-29T07:01:52;101740.53;;;22.94;33.71
31299;BME280;17927;52.350;13.402;2023-05-29T07:04:17;101739.53;;;23.02;34.03
31299;BME280;17927;52.350;13.402;2023-05-29T07:06:42;101736.16;;;23.07;33.59
31299;BME280;17927;52.350;13.402;2023-05-29T07:09:07;101743.84;;;23.11;33.50
31299;BME280;17927;52.350;13.402;2023-05-29T07:11:33;101739.59;;;23.16;33.18
31299;BME280;17927;52.350;13.402;2023-05-29T07:13:58;101747.28;;;23.20;33.06
31299;BME280;17927;52.350;13.402;2023-05-29T07:16:23;101748.59;;;23.24;33.19
31299;BME280;17927;52.350;13.402;2023-05-29T07:18:48;101751.38;;;23.31;33.55
31299;BME280;17927;52.350;13.402;2023-05-29T07:21:14;101740.59;;;23.36;33.36
31299;BME280;17927;52.350;13.402;2023-05-29T07:23:39;101741.69;;;23.42;33.79
31299;BME280;17927;52.350;13.402;2023-05-29T07:26:05;101750.38;;;23.46;33.42
31299;BME280;17927;52.350;13.402;2023-05-29T07:28:30;101754.22;;;23.51;33.30
31299;BME280;17927;52.350;13.402;2023-05-29T07:30:56;101740.69;;;23.56;33.41
31299;BME280;17927;52.350;13.402;2023-05-29T07:33:21;101753.66;;;23.63;33.15
31299;BME280;17927;52.350;13.402;2023-05-29T07:35:47;101744.34;;;23.70;33.11
31299;BME280;17927;52.350;13.402;2023-05-29T07:38:12;101748.84;;;23.78;33.27
31299;BME280;17927;52.350;13.402;2023-05-29T07:40:38;101757.97;;;23.85;33.09
31299;BME280;17927;52.350;13.402;2023-05-29T07:43:03;101748.47;;;23.95;32.62
31299;BME280;17927;52.350;13.402;2023-05-29T07:45:28;101749.34;;;24.02;32.75
31299;BME280;17927;52.350;13.402;2023-05-29T07:47:53;101759.34;;;24.10;32.12
31299;BME280;17927;52.350;13.402;2023-05-29T07:50:19;101756.81;;;24.15;32.18
31299;BME280;17927;52.350;13.402;2023-05-29T07:52:45;101754.47;;;24.18;32.58
31299;BME280;17927;52.350;13.402;2023-05-29T07:55:10;101756.59;;;24.23;32.13
31299;BME280;17927;52.350;13.402;2023-05-29T07:57:35;101756.81;;;24.28;32.36
31299;BME280;17927;52.350;13.402;2023-05-29T08:00:00;101759.16;;;24.31;32.71
31299;BME280;17927;52.350;13.402;2023-05-29T08:02:30;101764.28;;;24.35;32.55
31299;BME280;17927;52.350;13.402;2023-05-29T08:04:56;101768.28;;;24.39;32.00
31299;BME280;17927;52.350;13.402;2023-05-29T08:07:21;101772.34;;;24.43;31.70
31299;BME280;17927;52.350;13.402;2023-05-29T08:09:46;101773.22;;;24.50;31.72
31299;BME280;17927;52.350;13.402;2023-05-29T08:12:12;101772.56;;;24.55;31.78
31299;BME280;17927;52.350;13.402;2023-05-29T08:14:37;101768.31;;;24.59;31.35
31299;BME280;17927;52.350;13.402;2023-05-29T08:17:02;101772.78;;;24.67;31.28
31299;BME280;17927;52.350;13.402;2023-05-29T08:19:28;101768.53;;;24.71;31.28
31299;BME280;17927;52.350;13.402;2023-05-29T08:21:53;101764.53;;;24.80;30.87
31299;BME280;17927;52.350;13.402;2023-05-29T08:24:18;101765.16;;;24.89;31.09
31299;BME280;17927;52.350;13.402;2023-05-29T08:26:45;101763.00;;;24.98;31.44
31299;BME280;17927;52.350;13.402;2023-05-29T08:29:10;101756.41;;;25.05;31.27
31299;BME280;17927;52.350;13.402;2023-05-29T08:31:36;101762.34;;;25.09;30.94
31299;BME280;17927;52.350;13.402;2023-05-29T08:34:01;101764.25;;;25.08;30.77
31299;BME280;17927;52.350;13.402;2023-05-29T08:36:27;101768.72;;;25.09;31.04
31299;BME280;17927;52.350;13.402;2023-05-29T08:38:53;101768.09;;;25.14;31.03
31299;BME280;17927;52.350;13.402;2023-05-29T08:41:28;101761.00;;;25.25;31.39
31299;BME280;17927;52.350;13.402;2023-05-29T08:43:59;101769.72;;;25.35;31.04
31299;BME280;17927;52.350;13.402;2023-05-29T08:46:26;101761.59;;;25.41;30.70
31299;BME280;17927;52.350;13.402;2023-05-29T08:48:53;101761.22;;;25.44;30.38
31299;BME280;17927;52.350;13.402;2023-05-29T08:51:20;101750.16;;;25.44;30.42
31299;BME280;17927;52.350;13.402;2023-05-29T08:53:48;101756.53;;;25.44;30.39
31299;BME280;17927;52.350;13.402;2023-05-29T08:56:14;101762.47;;;25.48;30.69
31299;BME280;17927;52.350;13.402;2023-05-29T08:58:39;101764.97;;;25.56;30.88
31299;BME280;17927;52.350;13.402;2023-05-29T09:01:05;101761.75;;;25.66;31.24
31299;BME280;17927;52.350;13.402;2023-05-29T09:03:30;101770.44;;;25.76;31.30
31299;BME280;17927;52.350;13.402;2023-05-29T09:05:59;101764.66;;;25.84;31.45
31299;BME280;17927;52.350;13.402;2023-05-29T09:08:25;101767.81;;;25.88;30.96
31299;BME280;17927;52.350;13.402;2023-05-29T09:10:51;101759.94;;;25.92;30.69
31299;BME280;17927;52.350;13.402;2023-05-29T09:13:17;101766.06;;;25.94;30.45
31299;BME280;17927;52.350;13.402;2023-05-29T09:15:42;101763.72;;;25.97;30.94
31299;BME280;17927;52.350;13.402;2023-05-29T09:18:08;101760.28;;;26.02;30.74
31299;BME280;17927;52.350;13.402;2023-05-29T09:20:33;101758.78;;;26.06;30.79
31299;BME280;17927;52.350;13.402;2023-05-29T09:23:01;101772.16;;;26.09;29.92
31299;BME280;17927;52.350;13.402;2023-05-29T09:25:29;101771.75;;;26.12;30.28
31299;BME280;17927;52.350;13.402;2023-05-29T09:27:58;101771.94;;;26.18;30.08
31299;BME280;17927;52.350;13.402;2023-05-29T09:30:39;101774.91;;;26.23;29.77
31299;BME280;17927;52.350;13.402;2023-05-29T09:33:07;101774.41;;;26.26;29.75
31299;BME280;17927;52.350;13.402;2023-05-29T09:35:34;101778.69;;;26.28;29.83
31299;BME280;17927;52.350;13.402;2023-05-29T09:38:00;101766.53;;;26.29;29.85
31299;BME280;17927;52.350;13.402;2023-05-29T09:40:25;101772.72;;;26.25;29.99
31299;BME280;17927;52.350;13.402;2023-05-29T09:42:51;101773.78;;;26.24;30.20
31299;BME280;17927;52.350;13.402;2023-05-29T09:45:17;101774.41;;;26.26;30.37
31299;BME280;17927;52.350;13.402;2023-05-29T09:47:43;101781.59;;;26.34;30.76
31299;BME280;17927;52.350;13.402;2023-05-29T09:50:18;101763.03;;;26.41;30.51
31299;BME280;17927;52.350;13.402;2023-05-29T09:52:45;101759.38;;;26.47;30.03
31299;BME280;17927;52.350;13.402;2023-05-29T09:55:11;101760.53;;;26.58;30.65
31299;BME280;17927;52.350;13.402;2023-05-29T09:57:38;101767.28;;;26.69;30.42
31299;BME280;17927;52.350;13.402;2023-05-29T10:00:04;101769.97;;;26.75;30.16
31299;BME280;17927;52.350;13.402;2023-05-29T10:02:37;101761.88;;;26.81;30.79
31299;BME280;17927;52.350;13.402;2023-05-29T10:05:05;101751.78;;;26.86;30.55
31299;BME280;17927;52.350;13.402;2023-05-29T10:07:35;101746.19;;;26.93;30.34
31299;BME280;17927;52.350;13.402;2023-05-29T10:10:05;101748.69;;;27.01;30.47
31299;BME280;17927;52.350;13.402;2023-05-29T10:12:36;101751.59;;;27.07;30.49
31299;BME280;17927;52.350;13.402;2023-05-29T10:15:07;101751.13;;;27.10;30.09
31299;BME280;17927;52.350;13.402;2023-05-29T10:17:37;101761.16;;;27.11;29.65
31299;BME280;17927;52.350;13.402;2023-05-29T10:20:05;101758.63;;;27.09;29.94
31299;BME280;17927;52.350;13.402;2023-05-29T10:22:39;101755.44;;;27.05;29.71
31299;BME280;17927;52.350;13.402;2023-05-29T10:25:07;101750.50;;;27.08;30.04
31299;BME280;17927;52.350;13.402;2023-05-29T10:27:33;101754.75;;;27.10;30.37
31299;BME280;17927;52.350;13.402;2023-05-29T10:30:04;101745.75;;;27.15;30.36
31299;BME280;17927;52.350;13.402;2023-05-29T10:32:36;101760.38;;;27.22;30.17
31299;BME280;17927;52.350;13.402;2023-05-29T10:35:16;101754.75;;;27.29;29.65
31299;BME280;17927;52.350;13.402;2023-05-29T10:37:48;101753.22;;;27.33;29.47
31299;BME280;17927;52.350;13.402;2023-05-29T10:40:15;101750.34;;;27.40;29.36
31299;BME280;17927;52.350;13.402;2023-05-29T10:42:48;101746.44;;;27.47;29.52
31299;BME280;17927;52.350;13.402;2023-05-29T10:50:54;101735.72;;;27.51;29.43
31299;BME280;17927;52.350;13.402;2023-05-29T10:53:24;101732.75;;;27.53;29.72
31299;BME280;17927;52.350;13.402;2023-05-29T10:55:50;101732.50;;;27.54;29.72
31299;BME280;17927;52.350;13.402;2023-05-29T10:58:20;101731.56;;;27.60;29.55
31299;BME280;17927;52.350;13.402;2023-05-29T11:00:46;101735.94;;;27.68;29.32
31299;BME280;17927;52.350;13.402;2023-05-29T11:03:19;101733.69;;;27.77;29.15
31299;BME280;17927;52.350;13.402;2023-05-29T11:06:05;101729.59;;;27.79;29.14
31299;BME280;17927;52.350;13.402;2023-05-29T11:08:52;101735.59;;;27.76;28.62
31299;BME280;17927;52.350;13.402;2023-05-29T11:13:53;101740.13;;;27.59;28.74
31299;BME280;17927;52.350;13.402;2023-05-29T11:18:57;101723.34;;;27.54;28.88
31299;BME280;17927;52.350;13.402;2023-05-29T11:23:54;101730.59;;;27.55;28.60
31299;BME280;17927;52.350;13.402;2023-05-29T11:26:22;101721.66;;;27.53;28.18
31299;BME280;17927;52.350;13.402;2023-05-29T11:28:48;101725.50;;;27.52;28.05
31299;BME280;17927;52.350;13.402;2023-05-29T11:31:14;101725.25;;;27.53;27.86
31299;BME280;17927;52.350;13.402;2023-05-29T11:33:40;101726.31;;;27.52;28.09
31299;BME280;17927;52.350;13.402;2023-05-29T11:36:09;101726.78;;;27.49;27.99
31299;BME280;17927;52.350;13.402;2023-05-29T11:38:36;101727.41;;;27.51;28.54
31299;BME280;17927;52.350;13.402;2023-05-29T11:41:01;101723.72;;;27.57;28.42
31299;BME280;17927;52.350;13.402;2023-05-29T11:43:27;101711.44;;;27.65;28.24
31299;BME280;17927;52.350;13.402;2023-05-29T11:45:52;101711.09;;;27.73;28.61
31299;BME280;17927;52.350;13.402;2023-05-29T11:48:17;101712.22;;;27.84;28.05
31299;BME280;17927;52.350;13.402;2023-05-29T11:50:43;101720.13;;;27.99;28.14
31299;BME280;17927;52.350;13.402;2023-05-29T11:53:11;101702.44;;;28.12;28.28
31299;BME280;17927;52.350;13.402;2023-05-29T11:55:37;101703.69;;;28.28;28.20
31299;BME280;17927;52.350;13.402;2023-05-29T11:58:03;101705.75;;;28.45;28.35
31299;BME280;17927;52.350;13.402;2023-05-29T12:00:33;101713.38;;;28.61;27.35
31299;BME280;17927;52.350;13.402;2023-05-29T12:02:59;101708.03;;;28.71;27.16
31299;BME280;17927;52.350;13.402;2023-05-29T12:05:29;101709.63;;;28.79;26.58
31299;BME280;17927;52.350;13.402;2023-05-29T12:07:56;101706.38;;;28.82;26.52
31299;BME280;17927;52.350;13.402;2023-05-29T12:10:22;101714.72;;;28.82;26.47
31299;BME280;17927;52.350;13.402;2023-05-29T12:12:52;101710.72;;;28.78;26.32
31299;BME280;17927;52.350;13.402;2023-05-29T12:15:18;101714.25;;;28.74;26.74
31299;BME280;17927;52.350;13.402;2023-05-29T12:17:47;101703.25;;;28.79;26.50
31299;BME280;17927;52.350;13.402;2023-05-29T12:20:13;101702.03;;;28.86;27.21
31299;BME280;17927;52.350;13.402;2023-05-29T12:22:40;101703.94;;;28.98;27.25
31299;BME280;17927;52.350;13.402;2023-05-29T12:25:20;101705.97;;;29.14;26.60
31299;BME280;17927;52.350;13.402;2023-05-29T12:27:47;101704.84;;;29.39;27.04
31299;BME280;17927;52.350;13.402;2023-05-29T12:30:13;101709.09;;;29.71;27.49
31299;BME280;17927;52.350;13.402;2023-05-29T12:32:43;101697.28;;;30.10;26.85
31299;BME280;17927;52.350;13.402;2023-05-29T12:35:20;101694.06;;;30.52;26.43
31299;BME280;17927;52.350;13.402;2023-05-29T12:37:53;101692.41;;;30.90;25.46
31299;BME280;17927;52.350;13.402;2023-05-29T12:40:21;101694.06;;;31.31;25.93
31299;BME280;17927;52.350;13.402;2023-05-29T12:42:47;101690.91;;;31.71;25.00
31299;BME280;17927;52.350;13.402;2023-05-29T12:45:13;101693.50;;;32.11;24.54
31299;BME280;17927;52.350;13.402;2023-05-29T12:47:50;101682.69;;;32.57;24.22
31299;BME280;17927;52.350;13.402;2023-05-29T12:50:22;101689.09;;;32.95;23.81
31299;BME280;17927;52.350;13.402;2023-05-29T12:55:22;101686.00;;;33.66;22.51
31299;BME280;17927;52.350;13.402;2023-05-29T12:57:47;101686.63;;;33.99;22.61
31299;BME280;17927;52.350;13.402;2023-05-29T13:00:13;101688.03;;;34.33;22.48
31299;BME280;17927;52.350;13.402;2023-05-29T13:02:39;101689.09;;;34.68;22.46